createdAt,value
2024-01-19T00:00:31.932Z,1.87
2024-01-19T00:02:58.436Z,1.92
2024-01-19T00:05:25.052Z,1.96
2024-01-19T00:07:51.569Z,2.00
2024-01-19T00:10:17.986Z,2.03
2024-01-19T00:12:44.426Z,2.07
2024-01-19T00:15:11.046Z,2.07
2024-01-19T00:17:37.839Z,2.08
2024-01-19T00:20:05.233Z,2.14
2024-01-19T00:22:31.708Z,2.14
2024-01-19T00:24:58.169Z,2.15
2024-01-19T00:27:24.650Z,2.20
2024-01-19T00:29:51.383Z,2.18
2024-01-19T00:32:17.826Z,2.13
2024-01-19T00:34:44.357Z,2.10
2024-01-19T00:37:10.818Z,2.09
2024-01-19T00:39:37.321Z,2.04
2024-01-19T00:42:04.087Z,2.03
2024-01-19T00:44:30.584Z,1.99
2024-01-19T00:46:57.065Z,1.95
2024-01-19T00:49:23.727Z,1.99
2024-01-19T00:51:50.269Z,1.94
2024-01-19T00:54:16.834Z,1.96
2024-01-19T00:56:43.352Z,1.95
2024-01-19T00:59:09.863Z,1.94
2024-01-19T01:01:36.470Z,1.95
2024-01-19T01:04:04.121Z,1.97
2024-01-19T01:06:32.981Z,1.95
2024-01-19T01:09:00.019Z,1.95
2024-01-19T01:11:26.772Z,1.95
2024-01-19T01:13:53.263Z,1.99
2024-01-19T01:16:19.748Z,1.98
2024-01-19T01:18:46.473Z,1.98
2024-01-19T01:21:13.032Z,2.03
2024-01-19T01:23:39.553Z,2.02
2024-01-19T01:26:07.068Z,2.02
2024-01-19T01:28:33.586Z,2.04
2024-01-19T01:31:00.039Z,2.03
2024-01-19T01:33:26.703Z,2.06
2024-01-19T01:35:53.376Z,2.07
2024-01-19T01:38:19.930Z,2.01
2024-01-19T01:40:46.410Z,2.01
2024-01-19T01:43:22.147Z,2.02
2024-01-19T01:45:48.729Z,2.01
2024-01-19T01:48:15.660Z,1.99
2024-01-19T01:50:42.913Z,1.93
2024-01-19T01:53:10.229Z,1.89
2024-01-19T01:55:36.998Z,1.87
2024-01-19T01:58:04.743Z,1.87
2024-01-19T02:00:33.808Z,1.87
2024-01-19T02:03:03.348Z,1.87
2024-01-19T02:05:30.245Z,1.86
2024-01-19T02:07:56.901Z,1.86
2024-01-19T02:10:23.342Z,1.90
2024-01-19T02:12:49.896Z,1.84
2024-01-19T02:15:24.158Z,1.88
2024-01-19T02:17:52.829Z,1.85
2024-01-19T02:20:20.119Z,1.84
2024-01-19T02:22:48.186Z,1.83
2024-01-19T02:25:15.315Z,1.83
2024-01-19T02:27:41.825Z,1.82
2024-01-19T02:30:12.619Z,1.78
2024-01-19T02:32:39.908Z,1.76
2024-01-19T02:35:07.013Z,1.77
2024-01-19T02:37:33.656Z,1.73
2024-01-19T02:40:01.730Z,1.73
2024-01-19T02:42:31.077Z,1.73
2024-01-19T02:44:58.668Z,1.77
2024-01-19T02:47:25.283Z,1.77
2024-01-19T02:49:52.690Z,1.68
2024-01-19T02:52:19.072Z,1.73
2024-01-19T02:54:45.722Z,1.74
2024-01-19T02:57:12.166Z,1.74
2024-01-19T02:59:38.650Z,1.74
2024-01-19T03:02:05.338Z,1.73
2024-01-19T03:04:31.990Z,1.66
2024-01-19T03:06:58.477Z,1.70
2024-01-19T03:09:24.983Z,1.73
2024-01-19T03:11:51.542Z,1.69
2024-01-19T03:14:18.037Z,1.70
2024-01-19T03:16:44.831Z,1.65
2024-01-19T03:19:11.606Z,1.64
2024-01-19T03:21:38.166Z,1.66
2024-01-19T03:24:04.923Z,1.66
2024-01-19T03:26:31.435Z,1.67
2024-01-19T03:28:58.167Z,1.70
2024-01-19T03:31:24.669Z,1.72
2024-01-19T03:33:51.226Z,1.74
2024-01-19T03:36:17.801Z,1.77
2024-01-19T03:38:44.448Z,1.71
2024-01-19T03:41:10.873Z,1.68
2024-01-19T03:43:37.392Z,1.69
2024-01-19T03:46:04.869Z,1.69
2024-01-19T03:48:31.649Z,1.71
2024-01-19T03:50:58.274Z,1.73
2024-01-19T03:53:24.851Z,1.77
2024-01-19T03:55:51.359Z,1.84
2024-01-19T03:58:17.931Z,1.82
2024-01-19T04:00:44.445Z,1.84
2024-01-19T04:03:11.024Z,1.82
2024-01-19T04:05:37.772Z,1.81
2024-01-19T04:08:04.511Z,1.80
2024-01-19T04:10:31.391Z,1.80
2024-01-19T04:12:57.869Z,1.78
2024-01-19T04:15:24.257Z,1.79
2024-01-19T04:17:50.870Z,1.75
2024-01-19T04:20:17.359Z,1.77
2024-01-19T04:22:43.816Z,1.80
2024-01-19T04:25:10.475Z,1.76
2024-01-19T04:27:36.958Z,1.75
2024-01-19T04:30:03.772Z,1.68
2024-01-19T04:32:30.457Z,1.64
2024-01-19T04:34:56.919Z,1.64
2024-01-19T04:37:23.315Z,1.61
2024-01-19T04:39:49.774Z,1.64
2024-01-19T04:42:16.279Z,1.73
2024-01-19T04:44:42.719Z,1.83
2024-01-19T04:47:10.159Z,1.83
2024-01-19T04:49:36.592Z,1.85
2024-01-19T04:52:03.141Z,1.90
2024-01-19T04:54:29.569Z,1.89
2024-01-19T04:56:56.048Z,1.88
2024-01-19T04:59:22.565Z,1.90
2024-01-19T05:01:49.241Z,1.86
2024-01-19T05:04:15.819Z,1.89
2024-01-19T05:06:43.363Z,1.91
2024-01-19T05:09:10.050Z,1.89
2024-01-19T05:11:36.584Z,1.89
2024-01-19T05:14:04.476Z,1.92
2024-01-19T05:16:31.066Z,1.91
2024-01-19T05:18:57.491Z,1.93
2024-01-19T05:21:23.948Z,1.92
2024-01-19T05:23:50.516Z,1.90
2024-01-19T05:26:17.034Z,1.89
2024-01-19T05:28:43.852Z,1.87
2024-01-19T05:31:10.286Z,1.82
2024-01-19T05:33:39.553Z,1.79
2024-01-19T05:36:07.204Z,1.73
2024-01-19T05:38:33.811Z,1.70
2024-01-19T05:41:02.534Z,1.65
2024-01-19T05:43:29.228Z,1.62
2024-01-19T05:45:55.659Z,1.65
2024-01-19T05:48:23.426Z,1.67
2024-01-19T05:50:50.289Z,1.57
2024-01-19T05:53:16.847Z,1.54
2024-01-19T05:55:43.824Z,1.56
2024-01-19T05:58:10.252Z,1.56
2024-01-19T06:00:36.708Z,1.65
2024-01-19T06:03:03.349Z,1.68
2024-01-19T06:05:30.152Z,1.71
2024-01-19T06:07:56.697Z,1.74
2024-01-19T06:10:23.175Z,1.77
2024-01-19T06:12:49.604Z,1.74
2024-01-19T06:15:16.074Z,1.72
2024-01-19T06:17:42.628Z,1.69
2024-01-19T06:20:09.668Z,1.63
2024-01-19T06:22:36.086Z,1.62
2024-01-19T06:25:02.534Z,1.61
2024-01-19T06:27:28.987Z,1.61
2024-01-19T06:29:55.468Z,1.60
2024-01-19T06:32:22.052Z,1.58
2024-01-19T06:34:48.581Z,1.55
2024-01-19T06:37:15.019Z,1.48
2024-01-19T06:39:41.417Z,1.43
2024-01-19T06:42:08.070Z,1.37
2024-01-19T06:44:34.590Z,1.38
2024-01-19T06:47:01.068Z,1.36
2024-01-19T06:49:27.692Z,1.25
2024-01-19T06:51:54.126Z,1.17
2024-01-19T06:54:20.578Z,1.22
2024-01-19T06:56:47.090Z,1.25
2024-01-19T06:59:13.570Z,1.24
2024-01-19T07:01:40.336Z,1.25
2024-01-19T07:04:07.286Z,1.26
2024-01-19T07:06:34.545Z,1.26
2024-01-19T07:09:01.849Z,1.25
2024-01-19T07:11:29.256Z,1.25
2024-01-19T07:13:55.935Z,1.28
2024-01-19T07:16:23.121Z,1.26
2024-01-19T07:18:49.876Z,1.26
2024-01-19T07:21:16.624Z,1.25
2024-01-19T07:23:43.215Z,1.23
2024-01-19T07:26:09.842Z,1.19
2024-01-19T07:28:36.336Z,1.16
2024-01-19T07:31:02.877Z,1.16
2024-01-19T07:33:33.117Z,1.16
2024-01-19T07:36:00.773Z,1.19
2024-01-19T07:38:28.644Z,1.15
2024-01-19T07:40:55.547Z,1.14
2024-01-19T07:43:22.266Z,1.12
2024-01-19T07:45:49.036Z,1.19
2024-01-19T07:48:15.813Z,1.20
2024-01-19T07:50:42.580Z,1.26
2024-01-19T07:53:09.189Z,1.32
2024-01-19T07:55:35.789Z,1.38
2024-01-19T07:58:03.836Z,1.48
2024-01-19T08:00:30.445Z,1.57
2024-01-19T08:02:57.083Z,1.60
2024-01-19T08:05:23.638Z,1.65
2024-01-19T08:07:50.438Z,1.72
2024-01-19T08:10:16.999Z,1.80
2024-01-19T08:12:43.443Z,1.86
2024-01-19T08:15:10.569Z,1.94
2024-01-19T08:17:37.226Z,2.00
2024-01-19T08:20:04.007Z,2.07
2024-01-19T08:22:30.620Z,2.08
2024-01-19T08:24:59.505Z,2.08
2024-01-19T08:27:26.176Z,2.06
2024-01-19T08:29:53.217Z,2.04
2024-01-19T08:32:19.807Z,2.00
2024-01-19T08:34:46.646Z,2.01
2024-01-19T08:37:14.148Z,2.03
2024-01-19T08:39:40.680Z,2.11
2024-01-19T08:42:07.533Z,2.15
2024-01-19T08:44:34.666Z,2.21
2024-01-19T08:47:01.217Z,2.24
2024-01-19T08:49:27.650Z,2.30
2024-01-19T08:51:54.543Z,2.43
2024-01-19T08:54:21.230Z,2.60
2024-01-19T08:56:55.152Z,2.63
2024-01-19T08:59:24.649Z,2.80
2024-01-19T09:01:54.773Z,2.99
2024-01-19T09:04:21.374Z,2.99
2024-01-19T09:06:50.188Z,3.09
2024-01-19T09:09:16.785Z,3.17
2024-01-19T09:11:43.425Z,3.26
2024-01-19T09:14:13.005Z,3.37
2024-01-19T09:16:43.587Z,3.41
2024-01-19T09:19:11.004Z,3.59
2024-01-19T09:21:37.584Z,3.80
2024-01-19T09:24:06.725Z,3.97
2024-01-19T09:26:33.317Z,3.99
2024-01-19T09:28:59.780Z,4.07
2024-01-19T09:31:26.385Z,4.12
2024-01-19T09:33:52.974Z,4.16
2024-01-19T09:36:19.548Z,4.14
2024-01-19T09:38:46.072Z,4.14
2024-01-19T09:41:45.899Z,4.06
2024-01-19T09:44:13.444Z,4.06
2024-01-19T09:46:52.253Z,4.16
2024-01-19T09:49:40.870Z,4.35
2024-01-19T09:52:43.133Z,4.43
2024-01-19T09:55:11.856Z,4.46
2024-01-19T09:57:47.474Z,4.41
2024-01-19T10:00:18.680Z,4.40
2024-01-19T10:02:50.177Z,4.51
2024-01-19T10:05:18.946Z,4.59
2024-01-19T10:07:54.573Z,4.69
2024-01-19T10:10:21.244Z,4.85
2024-01-19T10:12:47.905Z,5.08
2024-01-19T10:15:16.391Z,5.26
2024-01-19T10:17:46.125Z,5.31
2024-01-19T10:20:15.451Z,5.41
2024-01-19T10:22:42.713Z,5.46
2024-01-19T10:25:12.904Z,5.30
2024-01-19T10:27:48.517Z,4.98
2024-01-19T10:30:22.644Z,4.87
2024-01-19T10:32:51.383Z,4.78
2024-01-19T10:35:24.062Z,4.83
2024-01-19T10:37:51.251Z,5.02
2024-01-19T10:40:21.981Z,5.02
2024-01-19T10:42:51.643Z,4.92
2024-01-19T10:45:27.080Z,4.90
2024-01-19T10:47:56.261Z,4.97
2024-01-19T10:50:29.452Z,4.96
2024-01-19T10:52:58.269Z,4.92
2024-01-19T10:55:29.665Z,5.19
2024-01-19T10:58:11.971Z,5.54
2024-01-19T11:00:39.603Z,5.71
2024-01-19T11:03:06.399Z,5.90
2024-01-19T11:05:33.699Z,5.84
2024-01-19T11:08:03.558Z,5.98
2024-01-19T11:10:32.062Z,6.31
2024-01-19T11:13:01.051Z,6.33
2024-01-19T11:15:30.299Z,6.69
2024-01-19T11:18:00.016Z,6.77
2024-01-19T11:20:26.725Z,6.95
2024-01-19T11:22:53.933Z,6.93
2024-01-19T11:25:31.664Z,6.93
2024-01-19T11:28:11.239Z,7.05
2024-01-19T11:31:14.452Z,7.07
2024-01-19T11:33:41.581Z,7.28
2024-01-19T11:36:08.566Z,7.35
2024-01-19T11:38:38.216Z,7.30
2024-01-19T11:41:04.898Z,7.34
2024-01-19T11:43:39.224Z,7.68
2024-01-19T11:46:07.636Z,7.70
2024-01-19T11:48:49.095Z,7.88
2024-01-19T11:51:35.284Z,8.00
2024-01-19T11:54:05.967Z,7.72
2024-01-19T11:56:32.734Z,7.80
2024-01-19T11:58:59.868Z,8.02
2024-01-19T12:01:26.569Z,8.18
2024-01-19T12:03:55.433Z,8.38
2024-01-19T12:06:23.867Z,8.37
2024-01-19T12:09:01.879Z,8.41
2024-01-19T12:11:28.510Z,8.37
2024-01-19T12:14:01.760Z,8.40
2024-01-19T12:16:32.270Z,8.69
2024-01-19T12:18:59.825Z,8.90
2024-01-19T12:21:26.931Z,9.06
2024-01-19T12:23:55.684Z,8.86
2024-01-19T12:26:22.822Z,8.46
2024-01-19T12:28:50.816Z,8.54
2024-01-19T12:31:32.423Z,8.47
2024-01-19T12:34:10.944Z,8.77
2024-01-19T12:36:37.513Z,8.91
2024-01-19T12:39:07.238Z,9.03
2024-01-19T12:41:34.764Z,8.90
2024-01-19T12:44:01.857Z,9.19
2024-01-19T12:46:28.697Z,9.18
2024-01-19T12:49:00.027Z,9.34
2024-01-19T12:51:26.873Z,9.08
2024-01-19T12:53:56.819Z,8.81
2024-01-19T12:56:34.227Z,8.70
2024-01-19T12:59:11.642Z,8.76
2024-01-19T13:01:41.927Z,8.51
2024-01-19T13:04:08.496Z,8.85
2024-01-19T13:06:55.249Z,9.00
2024-01-19T13:09:23.217Z,8.69
2024-01-19T13:11:49.694Z,8.41
2024-01-19T13:14:16.329Z,8.44
2024-01-19T13:16:55.470Z,8.55
2024-01-19T13:19:22.093Z,8.78
2024-01-19T13:21:50.046Z,9.01
2024-01-19T13:24:16.599Z,8.71
2024-01-19T13:26:43.093Z,8.65
2024-01-19T13:29:09.627Z,8.49
2024-01-19T13:31:37.278Z,8.55
2024-01-19T13:34:03.868Z,8.23
2024-01-19T13:36:31.572Z,8.22
2024-01-19T13:38:59.113Z,8.40
2024-01-19T13:41:25.587Z,8.21
2024-01-19T13:43:53.958Z,8.32
2024-01-19T13:46:21.385Z,8.20
2024-01-19T13:48:47.863Z,7.95
2024-01-19T13:51:14.483Z,7.95
2024-01-19T13:53:41.044Z,8.16
2024-01-19T13:56:09.142Z,8.22
2024-01-19T13:58:37.774Z,8.30
2024-01-19T14:01:07.165Z,8.28
2024-01-19T14:03:34.021Z,8.24
2024-01-19T14:06:00.825Z,8.13
2024-01-19T14:08:27.533Z,8.02
2024-01-19T14:10:54.734Z,8.05
2024-01-19T14:13:21.354Z,7.88
2024-01-19T14:15:52.510Z,7.69
2024-01-19T14:18:19.902Z,7.80
2024-01-19T14:20:50.266Z,7.84
2024-01-19T14:23:16.874Z,7.80
2024-01-19T14:25:43.602Z,7.88
2024-01-19T14:28:12.100Z,7.92
2024-01-19T14:30:39.992Z,8.03
2024-01-19T14:33:08.061Z,7.94
2024-01-19T14:35:34.971Z,8.05
2024-01-19T14:38:01.932Z,7.87
2024-01-19T14:40:28.517Z,7.78
2024-01-19T14:42:59.896Z,7.65
2024-01-19T14:45:27.806Z,7.45
2024-01-19T14:47:54.867Z,7.40
2024-01-19T14:50:23.163Z,7.43
2024-01-19T14:52:51.180Z,7.43
2024-01-19T14:55:18.559Z,7.33
2024-01-19T14:57:45.065Z,7.14
2024-01-19T15:00:12.296Z,7.24
2024-01-19T15:02:39.211Z,7.08
2024-01-19T15:05:06.173Z,7.05
2024-01-19T15:07:35.707Z,7.00
2024-01-19T15:10:04.618Z,7.13
2024-01-19T15:12:31.186Z,6.98
2024-01-19T15:14:57.827Z,6.96
2024-01-19T15:17:24.402Z,6.92
2024-01-19T15:19:53.606Z,6.82
2024-01-19T15:22:21.290Z,6.70
2024-01-19T15:24:48.747Z,6.63
2024-01-19T15:27:15.256Z,6.44
2024-01-19T15:29:42.531Z,6.38
2024-01-19T15:32:09.175Z,6.32
2024-01-19T15:34:35.788Z,6.26
2024-01-19T15:37:02.285Z,6.10
2024-01-19T15:39:29.254Z,5.97
2024-01-19T15:41:57.216Z,5.85
2024-01-19T15:44:25.310Z,5.76
2024-01-19T15:46:51.857Z,5.66
2024-01-19T15:49:18.515Z,5.57
2024-01-19T15:51:45.049Z,5.51
2024-01-19T15:54:11.770Z,5.43
2024-01-19T15:56:39.060Z,5.28
2024-01-19T15:59:08.012Z,5.21
2024-01-19T16:01:36.325Z,5.16
2024-01-19T16:04:04.886Z,5.11
2024-01-19T16:06:32.083Z,5.03
2024-01-19T16:08:58.966Z,4.92
2024-01-19T16:11:25.522Z,4.85
2024-01-19T16:13:52.063Z,4.85
2024-01-19T16:16:18.730Z,4.81
2024-01-19T16:18:46.214Z,4.70
2024-01-19T16:21:21.013Z,4.65
2024-01-19T16:23:47.535Z,4.60
2024-01-19T16:26:17.706Z,4.54
2024-01-19T16:28:44.267Z,4.49
2024-01-19T16:31:11.346Z,4.46
2024-01-19T16:33:37.799Z,4.40
2024-01-19T16:36:07.565Z,4.36
2024-01-19T16:38:34.500Z,4.35
2024-01-19T16:41:01.219Z,4.32
2024-01-19T16:43:28.041Z,4.25
2024-01-19T16:45:55.188Z,4.26
2024-01-19T16:48:23.785Z,4.22
2024-01-19T16:50:51.391Z,4.19
2024-01-19T16:53:17.974Z,4.23
2024-01-19T16:55:44.775Z,4.17
2024-01-19T16:58:11.617Z,4.10
2024-01-19T17:00:38.209Z,4.09
2024-01-19T17:03:05.098Z,4.00
2024-01-19T17:05:31.780Z,3.98
2024-01-19T17:07:58.247Z,3.96
2024-01-19T17:10:24.763Z,3.97
2024-01-19T17:12:51.238Z,3.91
2024-01-19T17:15:17.850Z,3.92
2024-01-19T17:17:44.435Z,3.88
2024-01-19T17:20:11.569Z,3.88
2024-01-19T17:22:38.518Z,3.84
2024-01-19T17:25:05.581Z,3.75
2024-01-19T17:27:32.041Z,3.69
2024-01-19T17:29:58.610Z,3.66
2024-01-19T17:32:25.282Z,3.67
2024-01-19T17:34:52.104Z,3.70
2024-01-19T17:37:18.762Z,3.69
2024-01-19T17:39:45.287Z,3.68
2024-01-19T17:42:12.507Z,3.63
2024-01-19T17:44:39.220Z,3.61
2024-01-19T17:47:05.807Z,3.58
2024-01-19T17:49:32.413Z,3.52
2024-01-19T17:51:58.975Z,3.45
2024-01-19T17:54:27.427Z,3.42
2024-01-19T17:56:53.901Z,3.44
2024-01-19T17:59:20.396Z,3.36
2024-01-19T18:01:47.086Z,3.34
2024-01-19T18:04:14.636Z,3.35
2024-01-19T18:06:41.969Z,3.33
2024-01-19T18:09:08.654Z,3.28
2024-01-19T18:11:35.651Z,3.25
2024-01-19T18:14:04.344Z,3.21
2024-01-19T18:16:31.023Z,3.19
2024-01-19T18:18:58.428Z,3.20
2024-01-19T18:21:25.163Z,3.19
2024-01-19T18:23:51.853Z,3.12
2024-01-19T18:26:18.680Z,3.16
2024-01-19T18:28:45.386Z,3.16
2024-01-19T18:31:12.274Z,3.14
2024-01-19T18:33:42.427Z,3.11
2024-01-19T18:36:10.519Z,3.15
2024-01-19T18:38:36.947Z,3.12
2024-01-19T18:41:04.653Z,3.09
2024-01-19T18:43:31.455Z,3.03
2024-01-19T18:45:58.524Z,3.04
2024-01-19T18:48:25.008Z,3.03
2024-01-19T18:50:51.560Z,3.02
2024-01-19T18:53:18.927Z,2.96
2024-01-19T18:55:46.930Z,2.96
2024-01-19T18:58:13.512Z,2.98
2024-01-19T19:00:40.132Z,2.98
2024-01-19T19:03:06.942Z,2.98
2024-01-19T19:05:34.680Z,2.89
2024-01-19T19:08:06.647Z,2.90
2024-01-19T19:10:33.342Z,2.81
2024-01-19T19:13:00.213Z,2.81
2024-01-19T19:15:27.401Z,2.80
2024-01-19T19:17:54.050Z,2.75
2024-01-19T19:20:21.532Z,2.82
2024-01-19T19:22:48.212Z,2.76
2024-01-19T19:25:14.841Z,2.77
2024-01-19T19:27:41.319Z,2.73
2024-01-19T19:30:11.615Z,2.73
2024-01-19T19:32:38.186Z,2.70
2024-01-19T19:35:05.060Z,2.72
2024-01-19T19:37:31.631Z,2.74
2024-01-19T19:39:58.126Z,2.67
2024-01-19T19:42:24.605Z,2.68
2024-01-19T19:44:51.125Z,2.66
2024-01-19T19:47:17.758Z,2.64
2024-01-19T19:49:44.250Z,2.64
2024-01-19T19:52:11.515Z,2.65
2024-01-19T19:54:38.280Z,2.63
2024-01-19T19:57:05.089Z,2.62
2024-01-19T19:59:31.577Z,2.61
2024-01-19T20:01:58.107Z,2.58
2024-01-19T20:04:24.626Z,2.55
2024-01-19T20:06:51.626Z,2.57
2024-01-19T20:09:18.333Z,2.56
2024-01-19T20:11:44.943Z,2.55
2024-01-19T20:14:11.701Z,2.54
2024-01-19T20:16:40.565Z,2.53
2024-01-19T20:19:08.000Z,2.54
2024-01-19T20:21:34.847Z,2.53
2024-01-19T20:24:01.707Z,2.51
2024-01-19T20:26:31.953Z,2.51
2024-01-19T20:28:59.603Z,2.54
2024-01-19T20:31:26.336Z,2.52
2024-01-19T20:33:53.417Z,2.52
2024-01-19T20:36:19.993Z,2.51
2024-01-19T20:38:46.594Z,2.48
2024-01-19T20:41:14.850Z,2.45
2024-01-19T20:43:41.562Z,2.43
2024-01-19T20:46:08.096Z,2.41
2024-01-19T20:48:34.644Z,2.42
2024-01-19T20:51:01.232Z,2.42
2024-01-19T20:53:27.801Z,2.39
2024-01-19T20:55:54.739Z,2.43
2024-01-19T20:58:21.496Z,2.40
2024-01-19T21:00:48.336Z,2.43
2024-01-19T21:03:16.461Z,2.36
2024-01-19T21:05:43.475Z,2.39
2024-01-19T21:08:10.294Z,2.39
2024-01-19T21:10:39.036Z,2.41
2024-01-19T21:13:05.833Z,2.44
2024-01-19T21:15:32.609Z,2.39
2024-01-19T21:17:59.236Z,2.35
2024-01-19T21:20:26.038Z,2.33
2024-01-19T21:22:52.879Z,2.33
2024-01-19T21:25:21.502Z,2.30
2024-01-19T21:27:48.174Z,2.26
2024-01-19T21:30:14.821Z,2.28
2024-01-19T21:32:41.424Z,2.21
2024-01-19T21:35:08.341Z,2.20
2024-01-19T21:37:35.640Z,2.14
2024-01-19T21:40:03.015Z,2.15
2024-01-19T21:42:29.747Z,2.15
2024-01-19T21:44:56.453Z,2.13
2024-01-19T21:47:24.240Z,2.14
2024-01-19T21:49:53.763Z,2.11
2024-01-19T21:52:22.054Z,2.09
2024-01-19T21:54:48.928Z,2.07
2024-01-19T21:57:15.829Z,2.09
2024-01-19T21:59:42.432Z,2.03
2024-01-19T22:02:09.122Z,1.96
2024-01-19T22:04:35.937Z,2.01
2024-01-19T22:07:02.907Z,1.97
2024-01-19T22:09:29.472Z,1.97
2024-01-19T22:11:59.401Z,1.99
2024-01-19T22:14:27.306Z,1.93
2024-01-19T22:16:54.032Z,1.97
2024-01-19T22:19:20.722Z,1.96
2024-01-19T22:21:47.197Z,1.93
2024-01-19T22:24:13.728Z,1.91
2024-01-19T22:26:43.452Z,1.88
2024-01-19T22:29:11.137Z,1.87
2024-01-19T22:31:40.687Z,1.86
2024-01-19T22:34:09.360Z,1.86
2024-01-19T22:36:37.146Z,1.81
2024-01-19T22:39:04.382Z,1.83
2024-01-19T22:41:32.510Z,1.83
2024-01-19T22:43:59.993Z,1.86
2024-01-19T22:46:27.677Z,1.83
2024-01-19T22:48:54.557Z,1.82
2024-01-19T22:51:21.373Z,1.79
2024-01-19T22:53:49.167Z,1.78
2024-01-19T22:56:16.368Z,1.79
2024-01-19T22:58:43.672Z,1.80
2024-01-19T23:01:11.032Z,1.77
2024-01-19T23:03:37.703Z,1.79
2024-01-19T23:06:04.847Z,1.77
2024-01-19T23:08:31.449Z,1.74
2024-01-19T23:10:58.043Z,1.69
2024-01-19T23:13:24.547Z,1.72
2024-01-19T23:15:51.134Z,1.70
2024-01-19T23:18:18.128Z,1.65
2024-01-19T23:20:45.004Z,1.61
2024-01-19T23:23:11.809Z,1.59
2024-01-19T23:25:38.750Z,1.57
2024-01-19T23:28:09.073Z,1.58
2024-01-19T23:30:37.275Z,1.52
2024-01-19T23:33:04.515Z,1.53
2024-01-19T23:35:31.228Z,1.53
2024-01-19T23:37:57.876Z,1.50
2024-01-19T23:40:25.265Z,1.48
2024-01-19T23:42:52.106Z,1.41
2024-01-19T23:45:19.965Z,1.38
2024-01-19T23:47:46.571Z,1.39
2024-01-19T23:50:13.202Z,1.42
2024-01-19T23:52:39.735Z,1.43
2024-01-19T23:55:06.755Z,1.44
2024-01-19T23:57:33.200Z,1.44
2024-01-19T23:59:59.938Z,1.43
